Terminal Aerodrome Forecast
Issued by NWS

Home | Current Version | Previous Version | Text Only | Print | Product List | Glossary On
Versions: 1 2 3 4 5 6 7 8 9 10 11 12 13 14 15 16 17 18 19 20 21 22 23 24 25 26 27 28 29 30
000
FTUS44 KHGX 261750 AAA
TAFCXO
TAF AMD
KCXO 261750Z 2618/2718 14015G20KT P6SM VCSH OVC025
     FM262200 14009KT 5SM BR VCSH SCT010 BKN019
     FM270300 15006KT 5SM BR OVC010
     FM271500 23014KT 4SM BR VCSH SCT005 OVC010
      TEMPO 2715/2718 2SM -TSRA BKN007CB=

USA.gov is the U.S. government's official web portal to all federal, state and local government web resources and services.